Time;durP1;ratioP1;P1;durP2;ratioP2;P2;SDS_P1;SDS_P2;PMS_P1;PMS_P2;Temp;Humidity;BMP_temperature;BMP_pressure;BME280_temperature;BME280_humidity;BME280_pressure;Samples;Min_cycle;Max_cycle;Signal;HPM_P1;HPM_P2
2022/08/11 00:00:44;;;;;;;3.53;2.65;;;;;;;16.84;76.45;102187.09;1027178;28;20043;-80
2022/08/11 00:01:18;;;;;;;2.90;1.98;;;;;;;16.80;76.02;102193.97;1029141;28;20099;-80
2022/08/11 00:01:53;;;;;;;2.83;2.03;;;;;;;16.78;75.88;102190.69;1034765;28;20525;-80
2022/08/11 00:02:32;;;;;;;3.75;2.42;;;;;;;16.69;76.49;102192.00;1031030;28;20051;-80
2022/08/11 00:03:06;;;;;;;4.25;2.75;;;;;;;16.76;76.41;102189.28;1031484;28;20043;-80
2022/08/11 00:03:56;;;;;;;2.50;2.20;;;;;;;16.81;76.26;102192.94;1030768;28;20388;-80
2022/08/11 00:04:33;;;;;;;3.95;2.20;;;;;;;16.71;75.39;102192.63;1033795;28;20092;-80
2022/08/11 00:05:11;;;;;;;8.80;2.45;;;;;;;16.77;75.28;102191.72;1030992;28;20094;-80
2022/08/11 00:05:50;;;;;;;5.22;2.95;;;;;;;16.84;75.99;102200.53;1027047;28;20086;-79
2022/08/11 00:06:28;;;;;;;4.70;2.33;;;;;;;16.90;75.15;102194.25;1023745;28;20062;-80
2022/08/11 00:07:01;;;;;;;2.78;2.20;;;;;;;16.80;75.02;102193.97;1026757;28;20081;-80
2022/08/11 00:07:40;;;;;;;3.25;1.85;;;;;;;16.86;74.55;102195.75;1021077;28;20039;-80
2022/08/11 00:08:30;;;;;;;4.85;2.60;;;;;;;16.93;75.07;102195.66;1023397;29;20043;-80
2022/08/11 00:09:08;;;;;;;5.55;2.50;;;;;;;16.95;74.73;102198.97;1023270;28;20035;-80
2022/08/11 00:09:40;;;;;;;3.25;2.33;;;;;;;16.98;74.66;102188.59;1022955;29;20050;-80
2022/08/11 00:10:20;;;;;;;5.68;2.40;;;;;;;16.92;75.20;102197.53;1022518;28;20058;-80
2022/08/11 00:10:55;;;;;;;3.30;2.28;;;;;;;16.95;74.94;102198.97;1024877;28;20047;-80
2022/08/11 00:11:35;;;;;;;5.18;2.38;;;;;;;16.97;74.65;102191.47;1025374;28;20138;-80
2022/08/11 00:12:14;;;;;;;15.25;3.72;;;;;;;17.04;74.86;102194.13;1022072;29;20050;-80
2022/08/11 00:12:51;;;;;;;4.22;2.55;;;;;;;17.01;74.47;102197.25;1021757;29;20063;-80
2022/08/11 00:13:31;;;;;;;11.45;3.25;;;;;;;17.01;74.41;102194.56;1026170;28;20057;-80
2022/08/11 00:14:04;;;;;;;;;;;;;;;16.97;73.72;102186.91;1032787;28;20055;-80
2022/08/11 00:14:36;;;;;;;2.17;1.85;;;;;;;16.94;74.30;102187.38;1031091;28;19950;-80
2022/08/11 00:15:09;;;;;;;4.68;2.13;;;;;;;16.92;74.27;102197.53;1023426;28;20430;-80
2022/08/11 00:15:43;;;;;;;8.02;2.40;;;;;;;16.93;74.48;102191.13;1024527;28;20050;-80
2022/08/11 00:16:21;;;;;;;4.38;2.60;;;;;;;16.96;74.68;102185.28;1024420;28;20138;-80
2022/08/11 00:17:07;;;;;;;5.18;2.25;;;;;;;16.88;74.54;102190.97;1019145;29;20043;-80
2022/08/11 00:17:39;;;;;;;4.20;1.95;;;;;;;16.95;74.27;102189.00;1018544;29;20047;-79
2022/08/11 00:18:12;;;;;;;2.28;2.08;;;;;;;16.93;74.42;102199.19;1019871;29;20535;-80
2022/08/11 00:18:48;;;;;;;7.57;2.15;;;;;;;16.86;74.46;102187.69;1021455;29;20048;-80
2022/08/11 00:19:22;;;;;;;5.97;2.10;;;;;;;16.81;74.90;102192.94;1021665;29;20046;-80
2022/08/11 00:20:14;;;;;;;2.90;2.15;;;;;;;16.80;74.81;102193.16;1026958;28;20047;-80
2022/08/11 00:20:47;;;;;;;2.10;1.90;;;;;;;16.79;75.30;102194.19;1025574;28;20066;-80
2022/08/11 00:21:20;;;;;;;5.15;2.45;;;;;;;16.83;75.82;102193.53;1030284;28;20136;-80
2022/08/11 00:22:19;;;;;;;5.43;2.85;;;;;;;16.81;75.14;102198.31;1027288;28;20538;-80
2022/08/11 00:22:51;;;;;;;7.95;2.47;;;;;;;16.79;75.26;102194.19;1023237;28;20047;-79
2022/08/11 00:23:24;;;;;;;6.57;2.30;;;;;;;16.82;76.05;102199.94;1027525;28;20051;-80
2022/08/11 00:24:00;;;;;;;5.13;2.28;;;;;;;16.80;76.14;102202.03;1031190;28;20046;-80
2022/08/11 00:24:39;;;;;;;5.40;2.88;;;;;;;16.82;75.57;102199.94;1030366;28;20054;-80
2022/08/11 00:25:28;;;;;;;6.25;3.03;;;;;;;16.81;75.68;102200.19;1031327;28;20038;-80
2022/08/11 00:26:00;;;;;;;4.07;2.72;;;;;;;16.81;75.56;102202.88;1027227;28;20526;-80
2022/08/11 00:26:31;;;;;;;9.13;2.95;;;;;;;16.81;75.70;102195.63;1031157;28;20534;-80
2022/08/11 00:27:04;;;;;;;6.60;2.60;;;;;;;16.70;76.02;102204.41;1031309;28;20070;-80
2022/08/11 00:27:37;;;;;;;7.40;3.53;;;;;;;16.64;76.04;102198.03;1027720;28;20041;-80
2022/08/11 00:28:30;;;;;;;3.22;2.42;;;;;;;16.66;75.90;102195.16;1030767;28;20486;-80
2022/08/11 00:29:09;;;;;;;6.45;2.78;;;;;;;16.60;76.17;102196.84;1031279;28;20038;-80
2022/08/11 00:29:51;;;;;;;6.18;2.75;;;;;;;16.66;76.29;102200.53;1035176;28;20465;-80
2022/08/11 00:30:23;;;;;;;5.85;2.40;;;;;;;16.69;76.09;102195.53;1032870;28;20042;-80
2022/08/11 00:31:06;;;;;;;7.47;3.30;;;;;;;16.68;76.22;102198.44;1035482;28;20409;-80
2022/08/11 00:31:45;;;;;;;6.50;2.75;;;;;;;16.57;76.39;102202.66;1030777;28;20043;-80
2022/08/11 00:32:16;;;;;;;7.55;2.80;;;;;;;16.39;77.05;102195.38;1031072;28;20121;-80
2022/08/11 00:32:54;;;;;;;2.90;2.40;;;;;;;16.44;76.98;102191.22;1031478;28;20038;-80
2022/08/11 00:33:38;;;;;;;3.65;3.00;;;;;;;16.43;77.32;102205.69;1028946;28;20062;-80
2022/08/11 00:34:18;;;;;;;2.83;2.60;;;;;;;16.35;76.99;102199.56;1027520;28;20125;-80
2022/08/11 00:34:51;;;;;;;5.45;2.60;;;;;;;16.32;78.19;102205.38;1026077;28;20062;-80
2022/08/11 00:35:44;;;;;;;7.30;2.75;;;;;;;16.24;78.07;102197.63;1034319;28;20490;-80
2022/08/11 00:36:49;;;;;;;2.90;2.33;;;;;;;16.32;77.02;102194.63;1031654;28;20054;-80
2022/08/11 00:37:22;;;;;;;2.78;2.58;;;;;;;16.21;77.11;102203.44;1029873;28;20050;-80
2022/08/11 00:37:54;;;;;;;6.47;3.17;;;;;;;16.15;78.33;102204.28;1027174;28;20537;-80
2022/08/11 00:38:29;;;;;;;6.57;3.17;;;;;;;16.14;78.91;102202.66;1027462;28;20050;-80
2022/08/11 00:39:05;;;;;;;10.93;2.90;;;;;;;16.21;78.96;102202.59;1025995;28;20435;-80
2022/08/11 00:39:46;;;;;;;3.38;2.58;;;;;;;16.15;78.16;102198.91;1027779;28;20035;-80
2022/08/11 00:40:31;;;;;;;3.47;2.58;;;;;;;16.12;78.60;102195.84;1024921;28;20047;-79
2022/08/11 00:41:17;;;;;;;2.97;2.67;;;;;;;16.07;78.18;102196.50;1025816;28;20042;-80
2022/08/11 00:42:07;;;;;;;3.78;2.83;;;;;;;16.00;78.38;102199.25;1029667;28;20049;-80
2022/08/11 00:42:47;;;;;;;11.48;3.45;;;;;;;15.98;79.32;102203.22;1027842;28;20046;-79
2022/08/11 00:43:45;;;;;;;7.82;2.80;;;;;;;15.95;78.76;102199.09;1031136;28;20049;-80
2022/08/11 00:44:31;;;;;;;4.85;2.13;;;;;;;16.00;78.56;102201.13;1028063;28;20049;-80
2022/08/11 00:45:25;;;;;;;3.65;2.45;;;;;;;16.00;77.67;102195.75;1027311;28;20573;-80
2022/08/11 00:46:22;;;;;;;11.35;2.47;;;;;;;15.93;78.42;102205.72;1024228;28;20058;-80
2022/08/11 00:47:08;;;;;;;4.93;3.10;;;;;;;16.03;78.76;102206.06;1024319;28;21128;-80
2022/08/11 00:47:54;;;;;;;3.58;2.75;;;;;;;15.99;79.23;102205.69;1027293;28;20046;-80
2022/08/11 00:48:40;;;;;;;4.35;3.15;;;;;;;16.00;79.64;102201.94;1020178;29;20053;-80
2022/08/11 00:49:42;;;;;;;7.15;3.70;;;;;;;15.93;79.50;102208.41;1019403;29;20601;-80
2022/08/11 00:50:32;;;;;;;9.43;2.80;;;;;;;15.95;78.93;102203.66;1021445;28;20051;-80
2022/08/11 00:51:35;;;;;;;3.67;2.92;;;;;;;16.05;79.64;102209.34;1026274;28;20510;-80
2022/08/11 00:52:58;;;;;;;4.95;3.00;;;;;;;16.07;79.34;102209.94;1027035;28;20046;-80
2022/08/11 00:53:48;;;;;;;5.80;2.92;;;;;;;16.09;79.28;102205.19;1025717;28;20138;-80
2022/08/11 00:54:42;;;;;;;6.30;2.92;;;;;;;16.05;79.18;102206.66;1027409;28;20049;-80
2022/08/11 00:55:38;;;;;;;5.45;3.35;;;;;;;16.05;79.29;102206.66;1030496;28;20053;-80
2022/08/11 00:56:44;;;;;;;4.00;3.55;;;;;;;15.88;79.69;102213.59;1031225;28;20046;-80
2022/08/11 00:57:34;;;;;;;5.20;2.90;;;;;;;15.89;80.07;102209.91;1027124;28;20050;-80
2022/08/11 00:58:23;;;;;;;3.58;3.28;;;;;;;16.03;80.40;102209.56;1023266;28;20050;-80
2022/08/11 00:58:56;;;;;;;5.20;3.15;;;;;;;16.10;80.63;102211.38;1025054;28;20063;-79
2022/08/11 00:59:53;;;;;;;4.75;3.40;;;;;;;16.10;80.26;102200.63;1030837;28;20046;-80
2022/08/11 01:00:31;;;;;;;29.10;5.70;;;;;;;16.01;80.26;102208.97;1034071;28;20042;-80
2022/08/11 01:01:14;;;;;;;11.52;3.80;;;;;;;16.05;79.83;102203.97;1027452;28;20118;-73
2022/08/11 01:01:56;;;;;;;6.85;3.25;;;;;;;16.05;79.44;102195.91;1026765;28;20499;-73
2022/08/11 01:02:37;;;;;;;17.85;4.38;;;;;;;15.85;80.47;102197.91;1026832;28;20064;-73
2022/08/11 01:03:19;;;;;;;14.90;4.25;;;;;;;15.85;81.93;102197.91;1027090;28;20561;-73
2022/08/11 01:04:19;;;;;;;21.95;4.05;;;;;;;15.81;81.18;102202.09;1026737;28;20035;-74
2022/08/11 01:04:54;;;;;;;12.98;3.17;;;;;;;15.79;81.84;102204.16;1024495;28;20043;-74
2022/08/11 01:05:50;;;;;;;9.82;2.90;;;;;;;15.80;80.80;102201.25;1026715;28;20117;-74
2022/08/11 01:06:50;;;;;;;13.32;3.50;;;;;;;15.81;80.16;102200.22;1025839;28;20054;-73
2022/08/11 01:07:44;;;;;;;10.52;4.28;;;;;;;15.72;81.10;102196.97;1030400;28;20441;-73
2022/08/11 01:08:42;;;;;;;9.90;3.75;;;;;;;15.64;80.94;102213.38;1026544;28;20105;-73
2022/08/11 01:09:35;;;;;;;5.18;3.47;;;;;;;15.55;80.34;102198.50;1029670;28;20438;-74
2022/08/11 01:10:41;;;;;;;27.80;3.42;;;;;;;15.54;80.94;102202.22;1028587;28;20039;-74
2022/08/11 01:11:54;;;;;;;16.77;5.07;;;;;;;15.50;81.40;102195.63;1027029;28;20050;-74
2022/08/11 01:12:41;;;;;;;5.32;2.67;;;;;;;15.54;81.39;102196.84;1027517;28;20031;-74
2022/08/11 01:13:29;;;;;;;2.95;2.67;;;;;;;15.53;80.91;102200.56;1031244;28;20043;-74
2022/08/11 01:14:28;;;;;;;7.60;3.00;;;;;;;15.51;81.57;102207.19;1026873;28;20046;-73
2022/08/11 01:15:48;;;;;;;10.88;3.28;;;;;;;15.45;81.21;102198.16;1028812;28;20047;-74
2022/08/11 01:16:55;;;;;;;7.25;3.05;;;;;;;15.42;81.57;102201.28;1034827;28;20085;-73
2022/08/11 01:17:58;;;;;;;3.35;3.05;;;;;;;15.33;82.44;102200.69;1033823;28;20049;-73
2022/08/11 01:18:57;;;;;;;10.63;3.47;;;;;;;15.40;82.38;102195.28;1032014;28;20038;-73
2022/08/11 01:19:53;;;;;;;4.07;3.08;;;;;;;15.38;82.41;102197.38;1028192;28;20050;-73
2022/08/11 01:20:58;;;;;;;5.00;3.20;;;;;;;15.32;82.69;102193.66;1032091;28;20085;-73
2022/08/11 01:21:35;;;;;;;3.85;3.22;;;;;;;15.35;83.15;102195.13;1031564;28;20510;-73
2022/08/11 01:22:41;;;;;;;5.45;3.53;;;;;;;15.35;82.90;102198.63;1030568;28;20046;-73
2022/08/11 01:23:48;;;;;;;6.78;3.00;;;;;;;15.30;82.92;102203.78;1027938;28;20046;-74
2022/08/11 01:24:29;;;;;;;6.80;4.88;;;;;;;15.28;83.22;102200.50;1028783;28;20510;-74
2022/08/11 01:25:20;;;;;;;3.72;3.20;;;;;;;15.34;82.95;102196.97;1027952;28;20057;-72
2022/08/11 01:26:14;;;;;;;7.63;3.08;;;;;;;15.27;83.83;102201.53;1030022;28;20610;-73
2022/08/11 01:27:16;;;;;;;8.18;3.17;;;;;;;15.05;83.96;102198.31;1032206;28;20042;-73
2022/08/11 01:28:23;;;;;;;5.53;3.35;;;;;;;15.14;84.71;102202.44;1032130;28;20061;-73
2022/08/11 01:29:17;;;;;;;3.80;3.33;;;;;;;15.18;84.04;102199.31;1031873;28;20054;-73
2022/08/11 01:30:05;;;;;;;5.25;3.78;;;;;;;15.07;83.75;102209.69;1030716;28;20065;-73
2022/08/11 01:31:02;;;;;;;18.33;3.75;;;;;;;14.95;84.61;102206.00;1028514;28;20042;-73
2022/08/11 01:32:00;;;;;;;6.97;3.20;;;;;;;14.88;85.59;102207.06;1028104;28;20173;-73
2022/08/11 01:33:07;;;;;;;8.88;3.33;;;;;;;14.77;84.78;102212.03;1030367;28;20519;-73
2022/08/11 01:34:07;;;;;;;7.32;3.20;;;;;;;14.73;85.58;102212.66;1030327;28;20038;-73
2022/08/11 01:35:01;;;;;;;4.75;3.60;;;;;;;14.79;84.60;102206.47;1032199;28;20046;-73
2022/08/11 01:35:51;;;;;;;7.38;3.88;;;;;;;14.83;84.80;102213.09;1019693;29;20151;-73
2022/08/11 01:36:39;;;;;;;6.60;3.58;;;;;;;14.89;83.93;102204.19;1021684;28;20460;-73
2022/08/11 01:37:37;;;;;;;8.60;3.72;;;;;;;14.88;85.04;102204.41;1031885;28;20046;-73
2022/08/11 01:38:26;;;;;;;12.27;4.85;;;;;;;14.90;85.13;102213.06;1032019;28;20089;-73
2022/08/11 01:39:31;;;;;;;4.95;3.10;;;;;;;14.79;85.98;102219.88;1031532;28;20038;-73
2022/08/11 01:40:14;;;;;;;11.85;3.35;;;;;;;14.69;86.11;102203.41;1033310;28;20078;-73
2022/08/11 01:41:13;;;;;;;6.95;2.92;;;;;;;14.65;86.70;102207.53;1032978;28;20038;-73
2022/08/11 01:44:38;;;;;;;5.15;3.20;;;;;;;14.69;88.00;102204.22;1031322;28;20050;-73
2022/08/11 01:45:14;;;;;;;4.60;3.22;;;;;;;14.69;87.38;102203.41;1027582;28;20058;-73
2022/08/11 01:45:54;;;;;;;7.32;3.58;;;;;;;14.73;87.68;102204.63;1036074;28;20531;-73
2022/08/11 01:46:32;;;;;;;4.10;3.67;;;;;;;14.75;87.59;102207.91;1031626;28;20049;-73
2022/08/11 01:48:40;;;;;;;7.65;3.78;;;;;;;14.78;85.35;102212.88;1023202;29;20039;-73
2022/08/11 01:49:23;;;;;;;9.55;3.42;;;;;;;14.68;86.03;102204.44;1027667;28;20054;-73
2022/08/11 01:50:30;;;;;;;5.50;2.92;;;;;;;14.74;86.08;102200.91;1022436;29;20086;-73
2022/08/11 01:51:07;;;;;;;3.70;3.30;;;;;;;14.72;85.46;102202.97;1023464;29;20043;-73
2022/08/11 01:52:17;;;;;;;9.52;3.35;;;;;;;14.67;86.15;102206.28;1025408;28;20042;-73
2022/08/11 01:53:07;;;;;;;;;;;;;;;14.63;86.88;102204.25;1024048;29;20043;-73
2022/08/11 01:53:41;;;;;;;7.75;3.53;;;;;;;14.69;85.77;102208.75;1027578;28;19961;-73
2022/08/11 01:54:36;;;;;;;3.50;3.08;;;;;;;14.76;86.21;102214.94;1022330;29;20059;-73
2022/08/11 01:55:15;;;;;;;4.65;3.45;;;;;;;14.57;87.45;102207.78;1017648;29;20036;-73
2022/08/11 01:56:14;;;;;;;3.67;3.08;;;;;;;14.61;87.35;102207.16;1017972;29;20075;-73
2022/08/11 01:56:55;;;;;;;8.18;3.90;;;;;;;14.61;87.10;102206.31;1023335;28;20043;-73
2022/08/11 01:57:37;;;;;;;7.60;3.72;;;;;;;14.70;86.88;102213.91;1027401;28;20415;-73
2022/08/11 01:58:22;;;;;;;3.38;3.08;;;;;;;14.71;86.70;102212.88;1027461;28;20503;-73
2022/08/11 01:59:34;;;;;;;11.70;4.40;;;;;;;14.75;86.62;102202.56;1027742;28;20606;-73
2022/08/11 02:00:11;;;;;;;6.43;2.83;;;;;;;14.78;85.35;102200.28;1026409;28;20043;-73
2022/08/11 02:01:05;;;;;;;3.53;3.15;;;;;;;14.88;85.47;102207.91;1027668;28;20046;-73
2022/08/11 02:01:43;;;;;;;4.22;3.10;;;;;;;14.89;86.64;102204.19;1027515;28;20039;-73
2022/08/11 02:02:46;;;;;;;7.03;4.05;;;;;;;14.97;86.62;102200.44;1026891;28;20042;-73
2022/08/11 02:03:25;;;;;;;4.35;2.83;;;;;;;14.86;86.41;102207.28;1026148;28;20042;-73
2022/08/11 02:04:07;;;;;;;4.57;3.28;;;;;;;14.89;86.20;102209.53;1024868;28;20039;-73
2022/08/11 02:04:56;;;;;;;3.90;3.50;;;;;;;14.88;85.15;102197.16;1027923;28;20053;-73
2022/08/11 02:05:50;;;;;;;4.57;3.05;;;;;;;14.87;86.39;102200.06;1023519;29;20075;-73
2022/08/11 02:06:53;;;;;;;6.78;3.40;;;;;;;14.69;87.05;102203.41;1021985;29;20043;-73
2022/08/11 02:07:55;;;;;;;4.93;3.70;;;;;;;14.76;87.44;102209.56;1027052;28;20058;-73
2022/08/11 02:08:44;;;;;;;4.10;3.67;;;;;;;14.81;86.55;102207.09;1025397;28;20039;-73
2022/08/11 02:09:42;;;;;;;4.03;3.60;;;;;;;14.66;86.52;102201.97;1023346;29;20406;-73
2022/08/11 02:11:45;;;;;;;6.05;3.83;;;;;;;14.70;87.82;102210.41;1027408;28;20043;-73
2022/08/11 02:12:26;;;;;;;7.55;3.75;;;;;;;14.72;87.12;102201.13;1022996;29;20600;-73
2022/08/11 02:13:11;;;;;;;3.53;3.28;;;;;;;14.68;86.90;102207.13;1020240;29;20054;-73
2022/08/11 02:14:02;;;;;;;3.70;3.05;;;;;;;14.70;88.19;102200.50;1019298;29;20186;-73
2022/08/11 02:14:43;;;;;;;7.57;3.22;;;;;;;14.66;87.78;102209.19;1023978;28;20098;-73
2022/08/11 02:15:49;;;;;;;3.75;3.38;;;;;;;14.69;87.94;102203.41;1027076;28;20053;-73
2022/08/11 02:16:37;;;;;;;3.40;3.08;;;;;;;14.65;87.62;102203.00;1030294;28;20043;-73
2022/08/11 02:17:35;;;;;;;3.42;3.13;;;;;;;14.67;87.44;102205.47;1026256;28;20047;-73
2022/08/11 02:18:20;;;;;;;4.15;3.30;;;;;;;14.72;86.96;102200.28;1023514;29;20047;-73
2022/08/11 02:24:15;;;;;;;7.20;3.22;;;;;;;14.64;86.73;102197.84;1027534;28;20089;-73
2022/08/11 02:25:27;;;;;;;12.25;4.00;;;;;;;14.73;87.62;102197.41;1023529;29;20531;-73
2022/08/11 02:26:14;;;;;;;7.30;4.43;;;;;;;14.73;86.93;102188.53;1019540;29;20051;-73
2022/08/11 02:26:49;;;;;;;8.88;3.88;;;;;;;14.80;87.72;102200.09;1021349;29;20043;-73
2022/08/11 02:27:24;;;;;;;8.02;3.97;;;;;;;14.79;88.01;102199.28;1020962;29;20051;-73
2022/08/11 02:28:12;;;;;;;7.72;3.75;;;;;;;14.82;87.93;102195.34;1026490;28;20049;-73
2022/08/11 02:28:48;;;;;;;8.13;3.35;;;;;;;14.85;87.48;102197.59;1023917;29;20051;-73
2022/08/11 02:29:32;;;;;;;4.55;4.10;;;;;;;14.82;87.30;102195.34;1021784;29;20504;-73
2022/08/11 02:30:07;;;;;;;4.05;3.75;;;;;;;14.84;87.43;102191.41;1023214;29;20035;-73
2022/08/11 02:33:21;;;;;;;6.80;4.13;;;;;;;14.88;87.36;102197.16;1024290;28;20494;-73
2022/08/11 02:33:23;;;;;;;7.55;4.40;;;;;;;14.87;86.43;102206.25;1025416;28;20038;-73
2022/08/11 02:34:18;;;;;;;5.35;4.80;;;;;;;14.91;86.83;102190.56;1025827;28;20503;-73
2022/08/11 02:35:10;;;;;;;9.10;3.85;;;;;;;14.92;86.11;102193.03;1026790;28;20038;-73
2022/08/11 02:35:54;;;;;;;5.35;3.25;;;;;;;14.90;86.27;102199.63;1026041;28;20039;-73
2022/08/11 02:36:53;;;;;;;3.70;3.40;;;;;;;14.85;87.61;102192.22;1027043;28;20115;-73
2022/08/11 02:37:46;;;;;;;3.97;3.55;;;;;;;14.84;88.14;102194.09;1024587;28;20043;-73
2022/08/11 02:38:17;;;;;;;6.38;3.78;;;;;;;14.82;87.73;102192.66;1024657;28;20047;-73
2022/08/11 02:39:02;;;;;;;5.00;4.07;;;;;;;14.89;88.34;102188.09;1023775;28;20067;-73
2022/08/11 02:39:42;;;;;;;5.13;4.28;;;;;;;14.82;88.57;102192.66;1018933;29;20622;-73
2022/08/11 02:40:15;;;;;;;7.20;4.47;;;;;;;14.79;88.47;102185.84;1018908;29;20103;-73
2022/08/11 02:42:21;;;;;;;5.20;4.00;;;;;;;14.83;88.64;102189.75;1019195;29;20052;-73
2022/08/11 02:42:43;;;;;;;4.57;3.78;;;;;;;14.79;88.72;102198.41;1026860;28;20047;-73
2022/08/11 02:43:35;;;;;;;4.85;3.65;;;;;;;14.73;88.89;102189.34;1014629;29;20056;-74
2022/08/11 02:44:31;;;;;;;4.45;3.88;;;;;;;14.76;88.21;102193.47;1017346;29;20079;-73
2022/08/11 02:45:05;;;;;;;6.45;3.50;;;;;;;14.77;88.13;102200.50;1021604;29;20384;-73
2022/08/11 02:46:19;;;;;;;7.32;4.00;;;;;;;14.69;88.54;102198.03;1023408;28;20150;-73
2022/08/11 02:47:13;;;;;;;4.97;4.47;;;;;;;14.58;88.59;102196.00;1005905;29;20169;-73
2022/08/11 02:50:06;;;;;;;6.63;4.05;;;;;;;14.40;90.41;102200.13;1030036;28;20406;-73
2022/08/11 02:51:05;;;;;;;7.95;4.38;;;;;;;14.43;90.43;102198.91;1030041;28;20049;-73
2022/08/11 02:52:22;;;;;;;7.18;4.18;;;;;;;14.40;90.08;102200.13;1031275;28;20066;-73
2022/08/11 02:53:23;;;;;;;10.38;4.25;;;;;;;14.41;90.27;102192.91;1030963;28;20594;-73
2022/08/11 02:54:09;;;;;;;21.17;5.95;;;;;;;14.48;90.09;102196.41;1025383;28;20438;-73
2022/08/11 02:55:11;;;;;;;10.88;5.82;;;;;;;14.43;90.17;102199.75;1025356;28;20051;-73
2022/08/11 02:56:26;;;;;;;6.63;4.25;;;;;;;14.45;90.06;102200.34;1026897;28;20421;-73
2022/08/11 02:57:05;;;;;;;5.65;4.15;;;;;;;14.48;90.03;102202.59;1031318;28;20043;-73
2022/08/11 02:57:58;;;;;;;6.60;4.75;;;;;;;14.45;90.52;102199.53;1035715;28;20093;-73
2022/08/11 02:59:54;;;;;;;11.10;4.97;;;;;;;14.55;90.18;102197.25;1031120;28;20054;-73
2022/08/11 03:00:26;;;;;;;9.48;5.15;;;;;;;14.45;90.79;102196.84;1025847;28;20081;-73
2022/08/11 03:01:33;;;;;;;7.13;4.32;;;;;;;14.45;89.75;102197.66;1027780;28;20039;-73
2022/08/11 03:02:15;;;;;;;10.10;4.88;;;;;;;14.47;90.37;102200.13;1025281;28;20070;-73
2022/08/11 03:03:32;;;;;;;4.57;4.18;;;;;;;14.50;90.46;102200.53;1035950;28;20046;-73
2022/08/11 03:04:09;;;;;;;7.28;4.43;;;;;;;14.45;91.09;102203.03;1031724;28;20054;-73
2022/08/11 03:05:10;;;;;;;4.82;4.30;;;;;;;14.52;90.36;102197.69;1029680;28;20054;-73
2022/08/11 03:06:27;;;;;;;12.50;6.03;;;;;;;14.48;90.69;102199.94;1031246;28;20120;-73
2022/08/11 03:07:06;;;;;;;6.15;4.50;;;;;;;14.51;91.49;102201.38;1030925;28;20058;-73
2022/08/11 03:08:11;;;;;;;8.73;4.30;;;;;;;14.45;91.02;102200.34;1026761;28;20035;-73
2022/08/11 03:08:51;;;;;;;6.47;5.35;;;;;;;14.41;91.61;102212.50;1025029;28;20035;-73
2022/08/11 03:09:43;;;;;;;8.82;5.72;;;;;;;14.39;91.96;102203.84;1029646;28;20053;-73
2022/08/11 03:16:46;;;;;;;9.73;5.03;;;;;;;14.45;92.38;102200.34;1022948;28;20044;-73
2022/08/11 03:17:31;;;;;;;5.85;4.97;;;;;;;14.42;92.35;102199.91;1027639;28;20073;-73
2022/08/11 03:18:25;;;;;;;7.15;5.28;;;;;;;14.39;92.25;102201.16;1023190;29;20039;-73
2022/08/11 03:19:22;;;;;;;8.80;5.70;;;;;;;14.38;92.52;102202.19;1022712;29;20435;-73
2022/08/11 03:20:28;;;;;;;6.72;4.47;;;;;;;14.36;91.85;102198.91;1028535;28;20050;-73
2022/08/11 03:21:10;;;;;;;7.55;4.78;;;;;;;14.35;93.02;102197.25;1033606;28;20060;-73
2022/08/11 03:22:18;;;;;;;11.88;5.25;;;;;;;14.25;92.54;102190.66;1031194;28;20125;-73
2022/08/11 03:23:07;;;;;;;5.28;4.72;;;;;;;14.25;91.33;102191.50;1029792;28;20547;-73
2022/08/11 03:24:12;;;;;;;8.52;4.65;;;;;;;14.28;92.10;102192.94;1033359;28;20042;-73
2022/08/11 03:24:57;;;;;;;11.98;5.55;;;;;;;14.34;93.09;102184.88;1031600;28;20117;-73
2022/08/11 03:25:50;;;;;;;9.40;5.30;;;;;;;14.22;92.39;102181.97;1025254;28;20044;-73
2022/08/11 03:26:30;;;;;;;5.85;5.35;;;;;;;14.25;92.68;102185.31;1028610;28;20050;-73
2022/08/11 03:27:27;;;;;;;7.50;5.50;;;;;;;14.30;93.11;102194.38;1027852;28;20043;-73
2022/08/11 03:28:27;;;;;;;10.05;5.13;;;;;;;14.29;92.54;102187.38;1031031;28;20546;-73
2022/08/11 03:29:18;;;;;;;5.25;4.75;;;;;;;14.28;92.47;102190.25;1034930;28;20143;-73
2022/08/11 03:30:22;;;;;;;8.82;4.82;;;;;;;14.17;92.85;102189.81;1035425;28;20048;-73
2022/08/11 03:31:05;;;;;;;20.40;7.38;;;;;;;14.18;93.57;102190.66;1034486;28;20041;-73
2022/08/11 03:31:48;;;;;;;9.68;4.65;;;;;;;14.22;92.55;102191.88;1034370;28;20046;-73
2022/08/11 03:32:33;;;;;;;19.45;6.55;;;;;;;14.21;92.30;102191.06;1031534;28;20045;-73
2022/08/11 03:34:10;;;;;;;8.88;5.55;;;;;;;14.06;93.03;102187.78;1031353;28;20042;-73
2022/08/11 03:34:44;;;;;;;5.22;4.35;;;;;;;14.12;93.08;102192.31;1026951;28;20050;-73
2022/08/11 03:35:17;;;;;;;10.55;5.63;;;;;;;14.10;92.78;102193.53;1028872;28;20520;-73
2022/08/11 03:36:09;;;;;;;6.65;4.60;;;;;;;14.08;92.52;102184.91;1031202;28;20444;-73
2022/08/11 03:36:51;;;;;;;10.88;4.78;;;;;;;14.13;93.62;102193.13;1035014;28;20038;-73
2022/08/11 03:37:53;;;;;;;11.48;5.88;;;;;;;14.10;93.39;102193.53;1035568;28;20057;-73
2022/08/11 03:38:28;;;;;;;6.25;5.65;;;;;;;14.11;94.29;102187.16;1031689;28;20046;-74
2022/08/11 03:39:04;;;;;;;6.05;5.22;;;;;;;14.13;93.46;102182.41;1024507;28;20383;-73
2022/08/11 03:40:09;;;;;;;8.68;5.97;;;;;;;14.18;93.84;102188.78;1023367;28;20055;-73
2022/08/11 03:42:40;;;;;;;15.13;5.57;;;;;;;14.09;93.73;102194.59;1021398;29;20043;-73
2022/08/11 03:43:48;;;;;;;5.72;5.10;;;;;;;14.09;93.01;102191.91;1032113;28;20462;-73
2022/08/11 03:45:07;;;;;;;5.13;4.63;;;;;;;14.13;93.69;102185.09;1013949;29;20052;-72
2022/08/11 03:46:09;;;;;;;20.15;5.55;;;;;;;14.13;93.91;102179.72;1026949;28;20051;-73
2022/08/11 03:46:57;;;;;;;6.28;5.68;;;;;;;14.07;93.56;102189.44;1025459;28;20045;-73
2022/08/11 03:47:46;;;;;;;6.85;5.88;;;;;;;14.07;94.15;102192.09;1027340;28;20137;-73
2022/08/11 03:48:39;;;;;;;6.88;5.05;;;;;;;14.13;94.48;102193.13;1032491;28;20051;-72
2022/08/11 03:49:19;;;;;;;12.82;5.50;;;;;;;14.14;94.62;102184.88;1028327;28;20039;-73
2022/08/11 03:50:35;;;;;;;7.28;5.72;;;;;;;14.09;95.09;102186.53;1031328;28;20114;-73
2022/08/11 03:51:22;;;;;;;9.48;6.03;;;;;;;14.14;94.96;102195.59;1024031;28;20046;-73
2022/08/11 03:52:08;;;;;;;15.02;5.60;;;;;;;14.11;94.34;102190.66;1029812;28;20051;-73
2022/08/11 03:52:57;;;;;;;5.57;4.80;;;;;;;14.09;95.08;102189.22;1031179;28;20038;-73
2022/08/11 03:53:55;;;;;;;7.38;5.85;;;;;;;14.10;94.16;102191.69;1031822;28;20042;-73
2022/08/11 03:54:54;;;;;;;9.15;5.53;;;;;;;14.18;94.85;102185.28;1030824;28;20050;-72
2022/08/11 03:56:12;;;;;;;5.78;5.15;;;;;;;14.12;94.21;102188.81;1030830;28;20386;-74
2022/08/11 03:57:08;;;;;;;5.80;5.00;;;;;;;14.18;94.51;102179.94;1031277;28;20568;-79
2022/08/11 03:57:54;;;;;;;7.50;4.90;;;;;;;14.24;95.34;102179.09;1026404;28;20071;-80
2022/08/11 03:58:54;;;;;;;12.02;4.78;;;;;;;14.16;94.60;102187.34;1028786;28;20133;-79
2022/08/11 04:00:00;;;;;;;7.25;5.57;;;;;;;14.07;93.98;102193.97;1027626;28;20044;-80
2022/08/11 04:00:57;;;;;;;6.85;4.45;;;;;;;13.97;94.23;102189.03;1034448;28;20045;-80
2022/08/11 04:02:00;;;;;;;5.40;4.90;;;;;;;14.04;95.17;102183.66;1034729;28;20506;-79
2022/08/11 04:03:09;;;;;;;7.18;4.55;;;;;;;13.78;96.52;102190.66;1033391;28;20050;-79
2022/08/11 04:03:49;;;;;;;6.78;4.32;;;;;;;13.85;97.21;102186.13;1033140;28;20465;-79
2022/08/11 04:04:48;;;;;;;10.25;5.07;;;;;;;13.84;95.62;102184.47;1035391;28;20045;-80
2022/08/11 04:05:45;;;;;;;5.22;4.72;;;;;;;13.87;96.24;102192.09;1030912;28;20046;-79
2022/08/11 04:06:39;;;;;;;6.45;4.90;;;;;;;13.96;94.67;102189.19;1022977;28;20051;-79
2022/08/11 04:07:33;;;;;;;5.45;4.88;;;;;;;13.97;95.09;102190.84;1032094;28;20046;-80
2022/08/11 04:08:43;;;;;;;11.35;4.75;;;;;;;13.90;94.63;102178.28;1012061;29;20048;-80
2022/08/11 04:09:34;;;;;;;5.30;4.80;;;;;;;13.92;94.11;102186.13;1027301;28;20106;-79
2022/08/11 04:10:35;;;;;;;5.85;4.70;;;;;;;13.93;94.16;102185.09;1030999;28;20181;-79
2022/08/11 04:11:41;;;;;;;5.80;4.50;;;;;;;13.93;93.83;102187.75;1029540;28;20061;-79
2022/08/11 04:12:49;;;;;;;4.88;4.40;;;;;;;13.90;94.19;102188.19;1033787;28;20069;-80
2022/08/11 04:15:58;;;;;;;5.65;4.25;;;;;;;13.76;93.42;102187.34;1035842;28;20515;-80
2022/08/11 04:17:00;;;;;;;6.97;4.30;;;;;;;13.83;94.64;102182.81;1035964;28;20045;-80